• Join FlightAware (Why Join?)
  • Login
  • US Flag 
Trick or treat! (Boo!!) 
01:17PM EDT


 

Airport Tracker/Info


-or-


 

Live Flight TrackerFlight Track Log ✈ N900GT ✈ 09-Jul-2013 ✈ KHOU - KWDG

Flight Track Log - Related Links

Times and Time Zones

All times are in EDT time to prevent confusion due to time zone crossing. See the N900GT flight status page for this flight to view local times or setup timezone preferences in your user account.

Time Position Orientation Groundspeed Altitude Reporting Facility
EDT Latitude Longitude Course Direction KTS MPH feet Rate Location/Type
04:36PM 29.6411 -95.2836 158° South 111 128 400  Level Houston Center
04:37PM 29.6169 -95.2722 158° South 168 193 1,600 1,200 Climbing Houston Center
04:38PM 29.6581 -95.2692 North 197 227 2,800 1,500 Climbing Houston Center
04:39PM 29.7133 -95.2736 356° North 198 228 4,400 1,680 Climbing Houston Center
04:40PM 29.7647 -95.2694 North 187 215 6,300 1,740 Climbing Houston Center
04:41PM 29.8283 -95.2633 North 186 214 8,300 1,440 Climbing Houston Center
04:42PM 29.8706 -95.2606 North 189 217 9,300 1,320 Climbing Houston Center
04:43PM 29.9228 -95.2556 North 187 215 10,900 1,440 Climbing Houston Center
04:44PM 29.9797 -95.2772 342° North 194 223 12,300 1,260 Climbing Houston Center
04:45PM 30.0328 -95.3119 330° Northwest 200 230 13,600 1,140 Climbing Houston Center
04:46PM 30.0811 -95.3444 330° Northwest 201 231 14,700 1,020 Climbing Houston Center
04:47PM 30.1297 -95.3781 329° Northwest 203 234 15,800 1,020 Climbing Houston Center
04:48PM 30.1789 -95.4103 330° Northwest 203 234 16,900 900 Climbing Houston Center
04:49PM 30.2258 -95.4433 329° Northwest 200 230 17,700 600 Climbing Houston Center
04:50PM 30.2850 -95.4828 330° Northwest 205 236 18,200 660 Climbing Houston Center
04:51PM 30.3383 -95.5197 329° Northwest 221 254 19,100 900 Climbing Houston Center
04:52PM 30.3875 -95.5531 330° Northwest 209 241 20,100 960 Climbing Houston Center
04:53PM 30.4342 -95.5833 331° Northwest 195 224 21,100 900 Climbing Houston Center
04:54PM 30.4772 -95.6139 329° Northwest 184 212 22,000 720 Climbing Houston Center
04:55PM 30.5208 -95.6425 331° Northwest 180 207 22,700 600 Climbing Houston Center
04:57PM 30.5811 -95.6767 334° Northwest 201 231 23,300 480 Climbing Houston Center
04:58PM 30.6358 -95.7058 335° Northwest 213 245 23,800 300 Climbing Houston Center
04:59PM 30.6900 -95.7353 335° Northwest 223 257 24,000 60 Climbing Houston Center
05:00PM 30.7522 -95.7683 335° Northwest 240 276 24,000  Level Houston Center
05:01PM 30.8306 -95.8097 336° Northwest 253 291 24,000  Level Houston Center
05:02PM 30.8950 -95.8439 336° Northwest 255 293 24,000  Level Houston Center
05:03PM 30.9606 -95.8789 335° Northwest 257 296 24,000  Level Houston Center
05:04PM 31.0253 -95.9139 335° Northwest 256 295 24,000  Level Houston Center
05:05PM 31.0919 -95.9497 335° Northwest 260 299 24,000  Level Houston Center
05:06PM 31.1583 -95.9806 338° Northwest 257 296 24,000  Level Houston Center
05:07PM 31.2408 -96.0122 342° North 257 296 24,000  Level Houston Center
05:08PM 31.3086 -96.0381 342° North 255 293 24,000  Level Houston Center
05:09PM 31.3783 -96.0656 341° North 261 300 24,000  Level Houston Center
05:10PM 31.4425 -96.0908 341° North 260 299 24,000  Level Houston Center
05:11PM 31.5256 -96.1222 342° North 265 305 24,000  Level Houston Center
05:12PM 31.5947 -96.1497 341° North 262 302 24,000  Level Houston Center
05:13PM 31.6636 -96.1764 342° North 261 300 24,000  Level Houston Center
05:14PM 31.7333 -96.2039 341° North 260 299 24,000  Level Houston Center
05:15PM 31.8033 -96.2311 342° North 262 302 24,000  Level Houston Center
05:16PM 31.8725 -96.2589 341° North 261 300 24,000  Level Houston Center
05:17PM 31.9422 -96.2850 342° North 261 300 24,000  Level Houston Center
05:18PM 32.0222 -96.3175 341° North 258 297 24,000  Level Houston Center
05:19PM 32.1025 -96.3514 340° North 250 288 24,000  Level Fort Worth Center
05:20PM 32.1694 -96.3803 340° North 250 288 24,000  Level Fort Worth Center
05:21PM 32.2386 -96.4064 342° North 250 288 24,000  Level Fort Worth Center
05:22PM 32.3078 -96.4303 344° North 250 288 24,000  Level Fort Worth Center
05:23PM 32.3767 -96.4564 342° North 250 288 24,000  Level Fort Worth Center
05:24PM 32.4481 -96.4828 343° North 250 288 24,000  Level Fort Worth Center
05:25PM 32.5150 -96.5092 342° North 250 288 24,000  Level Fort Worth Center
05:26PM 32.5839 -96.5356 342° North 250 288 24,000  Level Fort Worth Center
05:27PM 32.6508 -96.5597 343° North 250 288 24,000  Level Fort Worth Center
05:28PM 32.7222 -96.5886 341° North 250 288 24,000  Level Fort Worth Center
05:29PM 32.7892 -96.6153 341° North 250 288 24,000  Level Fort Worth Center
05:30PM 32.8581 -96.6394 344° North 250 288 24,000  Level Fort Worth Center
05:31PM 32.9272 -96.6661 342° North 250 288 24,000  Level Fort Worth Center
05:32PM 32.9942 -96.6903 343° North 250 288 24,000  Level Fort Worth Center
05:33PM 33.0653 -96.7194 341° North 250 288 24,000  Level Fort Worth Center
05:34PM 33.1322 -96.7461 342° North 250 288 24,000  Level Fort Worth Center
05:35PM 33.2033 -96.7703 344° North 250 288 24,000  Level Fort Worth Center
05:36PM 33.2703 -96.7997 340° North 250 288 24,000  Level Fort Worth Center
05:37PM 33.3392 -96.8242 343° North 250 288 24,000  Level Fort Worth Center
05:38PM 33.4061 -96.8511 341° North 250 288 24,000  Level Fort Worth Center
05:39PM 33.4753 -96.8781 342° North 250 288 24,000  Level Fort Worth Center
05:40PM 33.5419 -96.9025 343° North 250 288 24,000  Level Fort Worth Center
05:41PM 33.6006 -96.9272 341° North 250 288 24,000  Level Fort Worth Center
05:42PM 33.6694 -96.9542 342° North 250 288 24,000  Level Fort Worth Center
05:43PM 33.7364 -96.9814 341° North 250 288 24,000  Level Fort Worth Center
05:44PM 33.8033 -97.0086 341° North 250 288 24,000  Level Fort Worth Center
05:45PM 33.8722 -97.0333 343° North 250 288 24,000  Level Fort Worth Center
05:46PM 33.9392 -97.0556 345° North 250 288 24,000  Level Fort Worth Center
05:47PM 34.0081 -97.0728 348° North 245 282 24,000  Level Fort Worth Center
05:48PM 34.0769 -97.0950 345° North 240 276 24,000  Level Fort Worth Center
05:49PM 34.1481 -97.1200 344° North 240 276 24,000  Level Fort Worth Center
05:50PM 34.2147 -97.1422 345° North 240 276 24,000  Level Fort Worth Center
05:51PM 34.2817 -97.1597 348° North 245 282 24,000  Level Fort Worth Center
05:52PM 34.3506 -97.1794 347° North 245 282 24,000  Level Fort Worth Center
05:53PM 34.4194 -97.1994 347° North 245 282 24,000  Level Fort Worth Center
05:54PM 34.4883 -97.2194 347° North 245 282 24,000  Level Fort Worth Center
05:55PM 34.5572 -97.2394 347° North 245 282 24,000 -180 Level Fort Worth Center
05:56PM 34.6281 -97.2622 345° North 245 282 23,700 -600 Descending Fort Worth Center
05:57PM 34.7011 -97.2822 347° North 255 293 22,800 -900 Descending Fort Worth Center
05:58PM 34.7764 -97.3047 346° North 261 300 22,000 -420 Descending Fort Worth Center
05:59PM 34.8472 -97.3275 345° North 266 306 22,000  Level Fort Worth Center
06:00PM 34.9161 -97.3478 346° North 261 300 22,000  Level Fort Worth Center
06:01PM 34.9869 -97.3678 347° North 261 300 22,000  Level Fort Worth Center
06:02PM 35.0558 -97.3908 345° North 261 300 22,000  Level Fort Worth Center
06:04PM 35.1686 -97.4214 348° North 253 291 22,000  Level Kansas City Center
06:05PM 35.2383 -97.4419 346° North 255 293 22,000  Level Kansas City Center
06:06PM 35.3086 -97.4636 346° North 257 296 22,000  Level Kansas City Center
06:07PM 35.3794 -97.4858 346° North 257 296 22,000 -780 Level Kansas City Center
06:08PM 35.4711 -97.5119 347° North 275 316 20,500 -1,080 Descending Kansas City Center
06:09PM 35.5489 -97.5350 346° North 284 327 19,800 -720 Descending Kansas City Center
06:10PM 35.6231 -97.5572 346° North 277 319 19,100 -900 Descending Kansas City Center
06:11PM 35.6967 -97.5792 346° North 272 313 18,000 -1,200 Descending Kansas City Center
06:12PM 35.7769 -97.6042 346° North 288 331 16,700 -1,320 Descending Kansas City Center
06:13PM 35.8561 -97.6289 346° North 293 337 15,300 -1,440 Descending Kansas City Center
06:14PM 35.9328 -97.6517 346° North 287 330 13,800 -1,980 Descending Kansas City Center
06:16PM 36.0211 -97.6789 346° North 277 319 11,300 -2,280 Descending Kansas City Center
06:17PM 36.0911 -97.7000 346° North 265 305 9,100 -2,280 Descending Kansas City Center
06:17PM 36.1592 -97.7233 345° North 255 293 6,800 -1,800 Descending Kansas City Center
06:19PM 36.2256 -97.7419 347° North 253 291 5,600 -1,260 Descending Kansas City Center
06:20PM 36.3008 -97.7414 360° North 241 277 4,200 -1,020 Descending Kansas City Center
06:21PM 36.3636 -97.7397 North 219 252 3,500 -720 Descending Kansas City Center